createdAt,value
2017-08-17T00:02:03.130Z,19.2
2017-08-17T00:07:02.770Z,19.2
2017-08-17T00:12:03.102Z,19.1
2017-08-17T00:17:02.985Z,19.1
2017-08-17T00:22:03.422Z,19.0
2017-08-17T00:27:03.237Z,18.9
2017-08-17T00:32:03.391Z,18.9
2017-08-17T00:37:02.735Z,19.0
2017-08-17T00:42:03.358Z,18.9
2017-08-17T00:47:03.217Z,18.8
2017-08-17T00:52:03.396Z,18.7
2017-08-17T00:57:03.193Z,18.7
2017-08-17T01:02:03.209Z,18.6
2017-08-17T01:07:03.342Z,18.7
2017-08-17T01:12:03.367Z,18.7
2017-08-17T01:17:03.334Z,18.7
2017-08-17T01:22:03.224Z,18.7
2017-08-17T01:27:03.028Z,18.7
2017-08-17T01:32:02.985Z,18.5
2017-08-17T01:37:02.761Z,18.5
2017-08-17T01:42:03.377Z,18.4
2017-08-17T01:47:03.168Z,18.4
2017-08-17T01:52:02.905Z,18.4
2017-08-17T01:57:03.473Z,18.4
2017-08-17T02:02:03.356Z,18.4
2017-08-17T02:07:03.140Z,18.4
2017-08-17T02:12:03.204Z,18.4
2017-08-17T02:17:03.148Z,18.3
2017-08-17T02:22:02.840Z,18.3
2017-08-17T02:27:03.481Z,18.2
2017-08-17T02:32:03.305Z,18.1
2017-08-17T02:37:02.813Z,18.1
2017-08-17T02:42:03.052Z,18.1
2017-08-17T02:47:03.329Z,18.0
2017-08-17T02:52:02.681Z,18.0
2017-08-17T02:57:02.986Z,18.0
2017-08-17T03:02:03.327Z,18.1
2017-08-17T03:07:02.956Z,18.1
2017-08-17T03:12:03.282Z,18.0
2017-08-17T03:17:03.636Z,18.0
2017-08-17T03:22:03.048Z,18.0
2017-08-17T03:27:03.375Z,18.0
2017-08-17T03:32:02.958Z,18.1
2017-08-17T03:37:03.152Z,18.1
2017-08-17T03:42:03.435Z,18.1
2017-08-17T03:47:12.308Z,18.1
2017-08-17T03:52:03.217Z,18.2
2017-08-17T03:57:02.860Z,18.2
2017-08-17T04:02:13.803Z,18.1
2017-08-17T04:07:02.821Z,18.1
2017-08-17T04:12:03.366Z,18.1
2017-08-17T04:17:17.898Z,18.2
2017-08-17T04:22:02.848Z,18.2
2017-08-17T04:27:03.365Z,18.2
2017-08-17T04:32:13.174Z,18.3
2017-08-17T04:37:03.127Z,18.2
2017-08-17T04:42:03.436Z,18.4
2017-08-17T04:47:13.111Z,18.3
2017-08-17T04:52:03.327Z,18.4
2017-08-17T04:57:02.712Z,18.4
2017-08-17T05:02:17.525Z,18.5
2017-08-17T05:07:03.581Z,18.8
2017-08-17T05:12:03.240Z,18.8
2017-08-17T05:17:18.240Z,19.0
2017-08-17T05:22:03.005Z,19.0
2017-08-17T05:27:03.481Z,19.1
2017-08-17T05:32:13.298Z,19.2
2017-08-17T05:37:03.484Z,19.2
2017-08-17T05:42:02.900Z,19.3
2017-08-17T05:47:18.089Z,19.3
2017-08-17T05:52:02.735Z,19.8
2017-08-17T05:57:03.050Z,19.8
2017-08-17T06:02:08.685Z,20.3
2017-08-17T06:07:03.028Z,20.3
2017-08-17T06:12:03.545Z,20.6
2017-08-17T06:17:13.275Z,20.8
2017-08-17T06:22:03.432Z,20.8
2017-08-17T06:27:02.930Z,21.4
2017-08-17T06:32:13.973Z,21.7
2017-08-17T06:37:03.251Z,21.7
2017-08-17T06:42:03.617Z,21.9
2017-08-17T06:47:13.594Z,22.2
2017-08-17T06:52:02.827Z,22.2
2017-08-17T06:57:03.080Z,22.2
2017-08-17T07:02:14.077Z,22.4
2017-08-17T07:07:03.525Z,22.4
2017-08-17T07:12:03.154Z,22.8
2017-08-17T07:17:18.237Z,23.6
2017-08-17T07:22:03.308Z,24.0
2017-08-17T07:27:02.819Z,24.0
2017-08-17T07:32:13.554Z,24.3
2017-08-17T07:37:03.417Z,24.3
2017-08-17T07:42:02.810Z,24.5
2017-08-17T07:47:17.904Z,25.2
2017-08-17T07:52:02.962Z,25.6
2017-08-17T07:57:03.429Z,25.6
2017-08-17T08:02:17.531Z,26.0
2017-08-17T08:07:03.219Z,26.6
2017-08-17T08:12:02.808Z,27.0
2017-08-17T08:17:13.746Z,27.0
2017-08-17T08:22:02.899Z,27.2
2017-08-17T08:27:03.402Z,27.5
2017-08-17T08:32:12.978Z,28.0
2017-08-17T08:37:03.228Z,28.5
2017-08-17T08:42:02.717Z,29.0
2017-08-17T08:47:23.108Z,29.3
2017-08-17T08:52:02.757Z,29.7
2017-08-17T08:57:03.154Z,29.6
2017-08-17T09:02:17.642Z,29.8
2017-08-17T09:07:02.797Z,29.8
2017-08-17T09:12:03.689Z,29.8
2017-08-17T09:17:13.896Z,29.7
2017-08-17T09:22:02.798Z,29.5
2017-08-17T09:27:03.248Z,28.8
2017-08-17T09:32:14.077Z,28.8
2017-08-17T09:37:03.355Z,29.0
2017-08-17T09:42:02.654Z,29.3
2017-08-17T09:47:13.611Z,29.7
2017-08-17T09:52:02.666Z,30.4
2017-08-17T09:57:03.236Z,30.5
2017-08-17T10:02:18.067Z,30.5
2017-08-17T10:07:03.224Z,30.3
2017-08-17T10:12:02.797Z,30.2
2017-08-17T10:17:18.133Z,30.4
2017-08-17T10:22:02.793Z,30.4
2017-08-17T10:27:03.310Z,30.7
2017-08-17T10:32:12.895Z,30.8
2017-08-17T10:37:03.153Z,30.6
2017-08-17T10:42:03.505Z,30.6
2017-08-17T10:47:17.414Z,30.7
2017-08-17T10:52:03.029Z,30.9
2017-08-17T10:57:03.375Z,30.9
2017-08-17T11:02:17.028Z,30.8
2017-08-17T11:07:03.345Z,30.8
2017-08-17T11:12:03.037Z,31.0
2017-08-17T11:17:17.810Z,30.9
2017-08-17T11:22:03.372Z,31.6
2017-08-17T11:27:02.814Z,31.5
2017-08-17T11:32:13.659Z,31.8
2017-08-17T11:37:03.229Z,31.7
2017-08-17T11:42:03.619Z,31.8
2017-08-17T11:52:02.975Z,31.7
2017-08-17T11:57:03.295Z,31.8
2017-08-17T12:02:13.353Z,31.7
2017-08-17T12:07:03.553Z,32.3
2017-08-17T12:12:03.227Z,32.9
2017-08-17T12:17:22.821Z,32.9
2017-08-17T12:22:03.592Z,32.3
2017-08-17T12:27:03.123Z,32.2
2017-08-17T12:32:23.027Z,31.8
2017-08-17T12:37:03.364Z,31.7
2017-08-17T12:42:02.769Z,31.8
2017-08-17T12:47:16.994Z,31.9
2017-08-17T12:52:03.425Z,32.6
2017-08-17T12:57:02.885Z,32.4
2017-08-17T13:02:13.643Z,31.6
2017-08-17T13:07:02.912Z,31.4
2017-08-17T13:12:03.528Z,31.5
2017-08-17T13:17:06.894Z,32.0
2017-08-17T13:22:03.588Z,32.4
2017-08-17T13:27:03.012Z,32.4
2017-08-17T13:32:13.980Z,32.2
2017-08-17T13:37:03.516Z,32.2
2017-08-17T13:42:03.522Z,32.2
2017-08-17T13:47:13.692Z,32.7
2017-08-17T13:52:03.316Z,32.6
2017-08-17T13:57:02.732Z,33.0
2017-08-17T14:02:13.572Z,33.3
2017-08-17T14:07:03.508Z,32.6
2017-08-17T14:12:03.116Z,32.6
2017-08-17T14:17:18.138Z,32.0
2017-08-17T14:22:02.829Z,31.0
2017-08-17T14:27:03.242Z,31.0
2017-08-17T14:37:03.381Z,32.6
2017-08-17T14:42:02.849Z,34.1
2017-08-17T14:47:13.874Z,33.7
2017-08-17T14:52:03.312Z,33.7
2017-08-17T14:57:02.792Z,35.0
2017-08-17T15:02:05.685Z,37.0
2017-08-17T15:07:03.577Z,37.1
2017-08-17T15:12:03.156Z,40.4
2017-08-17T15:17:13.670Z,40.3
2017-08-17T15:22:03.127Z,38.4
2017-08-17T15:27:03.462Z,37.8
2017-08-17T15:32:13.381Z,34.4
2017-08-17T15:37:03.202Z,34.3
2017-08-17T15:42:03.460Z,33.6
2017-08-17T15:52:03.496Z,32.2
2017-08-17T15:57:02.839Z,31.5
2017-08-17T16:02:12.685Z,31.1
2017-08-17T16:07:03.437Z,34.4
2017-08-17T16:12:02.825Z,34.4
2017-08-17T16:17:13.788Z,35.2
2017-08-17T16:22:03.360Z,35.1
2017-08-17T16:27:03.658Z,35.3
2017-08-17T16:32:13.418Z,34.5
2017-08-17T16:37:03.624Z,34.5
2017-08-17T16:42:03.001Z,33.8
2017-08-17T16:47:13.703Z,33.1
2017-08-17T16:52:03.518Z,32.5
2017-08-17T16:57:02.972Z,32.3
2017-08-17T17:02:13.909Z,42.0
2017-08-17T17:07:03.175Z,41.9
2017-08-17T17:12:03.574Z,33.8
2017-08-17T17:17:13.651Z,33.8
2017-08-17T17:22:02.773Z,32.1
2017-08-17T17:27:03.074Z,31.3
2017-08-17T17:32:13.663Z,31.2
2017-08-17T17:37:02.972Z,31.0
2017-08-17T17:42:03.398Z,30.8
2017-08-17T17:47:13.286Z,30.8
2017-08-17T17:52:02.783Z,30.8
2017-08-17T17:57:03.159Z,30.6
2017-08-17T18:07:03.403Z,29.8
2017-08-17T18:12:02.876Z,29.5
2017-08-17T18:17:13.817Z,29.0
2017-08-17T18:22:03.407Z,28.9
2017-08-17T18:27:02.819Z,28.4
2017-08-17T18:32:13.834Z,28.4
2017-08-17T18:37:02.825Z,28.2
2017-08-17T18:42:03.332Z,28.0
2017-08-17T18:47:13.808Z,27.6
2017-08-17T18:52:02.780Z,27.2
2017-08-17T18:57:03.053Z,26.9
2017-08-17T19:02:16.373Z,26.5
2017-08-17T19:07:03.028Z,26.3
2017-08-17T19:12:03.394Z,26.1
2017-08-17T19:17:11.393Z,26.0
2017-08-17T19:22:03.442Z,25.6
2017-08-17T19:27:02.894Z,25.6
2017-08-17T19:32:08.419Z,25.1
2017-08-17T19:37:03.130Z,25.1
2017-08-17T19:42:03.470Z,24.9
2017-08-17T19:47:02.916Z,24.6
2017-08-17T19:52:03.169Z,24.5
2017-08-17T19:57:03.499Z,24.4
2017-08-17T20:02:03.968Z,24.0
2017-08-17T20:07:03.332Z,24.0
2017-08-17T20:12:02.863Z,23.9
2017-08-17T20:17:03.430Z,23.7
2017-08-17T20:22:03.501Z,23.6
2017-08-17T20:27:02.957Z,23.4
2017-08-17T20:32:03.426Z,23.3
2017-08-17T20:37:03.629Z,23.3
2017-08-17T20:42:02.967Z,23.0
2017-08-17T20:47:03.591Z,23.0
2017-08-17T20:52:02.674Z,22.9
2017-08-17T20:57:02.977Z,22.7
2017-08-17T21:02:03.319Z,22.5
2017-08-17T21:07:02.922Z,22.4
2017-08-17T21:12:03.289Z,22.2
2017-08-17T21:17:03.954Z,22.1
2017-08-17T21:22:03.059Z,22.0
2017-08-17T21:27:03.386Z,22.0
2017-08-17T21:32:02.820Z,22.0
2017-08-17T21:37:03.114Z,21.9
2017-08-17T21:42:03.372Z,21.9
2017-08-17T21:47:03.193Z,21.9
2017-08-17T21:52:03.095Z,21.8
2017-08-17T21:57:03.414Z,21.7
2017-08-17T22:02:03.218Z,21.5
2017-08-17T22:07:03.303Z,21.3
2017-08-17T22:12:03.598Z,21.4
2017-08-17T22:22:03.898Z,21.1
2017-08-17T22:27:03.410Z,21.0
2017-08-17T22:32:03.508Z,21.0
2017-08-17T22:37:03.081Z,20.8
2017-08-17T22:42:03.696Z,20.8
2017-08-17T22:47:03.566Z,20.7
2017-08-17T22:52:03.146Z,20.4
2017-08-17T22:57:03.181Z,20.4
2017-08-17T23:02:03.255Z,20.4
2017-08-17T23:07:03.482Z,20.4
2017-08-17T23:12:03.514Z,20.3
2017-08-17T23:17:02.970Z,20.1
2017-08-17T23:22:03.017Z,20.0
2017-08-17T23:27:03.223Z,19.9
2017-08-17T23:32:03.359Z,19.8
2017-08-17T23:37:02.903Z,19.8
2017-08-17T23:42:02.940Z,19.6
2017-08-17T23:47:03.238Z,19.6
2017-08-17T23:52:03.585Z,19.6
2017-08-17T23:57:02.809Z,19.6
